Aviation Digital Data Service (ADDS)

Output produced by METARs form (1019 UTC 28 July 2014)
found at http://aviationweather.gov/adds/metars/
 
KBWI 280838Z 2809/2912 22007KT P6SM SCT050 BKN130 
     FM281400 28013G22KT P6SM SCT050 BKN090 
     FM282300 28009KT P6SM BKN090 
     FM290600 28006KT P6SM SCT250